CheckWX is a tool to help pilots better visualize weather data.  It is not intended as a substitute for an official pre-flight weather briefing.

21:55:03 UTC

KLOU METAR
Bowman Field Airport
Louisville, Kentucky, USA
Current

1 hour ago

KLOU 082053Z 24010KT 10SM SCT065 29/14 A2966 RMK AO2 SLP037 60000 T02890144 58022
Observed
Apr-8 @ 20:53 UTC
Wind
  • 240° at 10 KTS
Visibility
Flight Rules
VFR
Cloud Levels
  • Scattered at 6,500' AGL
Temperature
29°C / 84°F
Dewpoint
14°C / 57°F
Humidity
40%
Altimeter
29.66" Hg
Pressure
1004.42 hPa
Previous

2 hours ago

KLOU 081953Z VRB05KT 10SM BKN060 BKN080 28/16 A2969 RMK AO2 SLP047 T02830156
Observed
Apr-8 @ 19:53 UTC
Wind
  • Variable at 5 KTS
Visibility
Flight Rules
VFR
Cloud Levels
  • Broken at 6,000' AGL
  • Broken at 8,000' AGL
Temperature
28°C / 82°F
Dewpoint
16°C / 61°F
Humidity
48%
Altimeter
29.69" Hg
Pressure
1005.42 hPa
Previous

3 hours ago

KLOU 081853Z 24008KT 9SM SCT050 BKN065 BKN085 27/16 A2971 RMK AO2 RAB16E23 SLP054 P0000 T02670156
Observed
Apr-8 @ 18:53 UTC
Wind
  • 240° at 8 KTS
Visibility
Flight Rules
VFR
Cloud Levels
  • Scattered at 5,000' AGL
  • Broken at 6,500' AGL
  • Broken at 8,500' AGL
Temperature
27°C / 81°F
Dewpoint
16°C / 61°F
Humidity
51%
Altimeter
29.71" Hg
Pressure
1006.12 hPa
Current Rain
0.01"